Time;durP1;ratioP1;P1;durP2;ratioP2;P2;SDS_P1;SDS_P2;PMS_P1;PMS_P2;Temp;Humidity;BMP_temperature;BMP_pressure;BME280_temperature;BME280_humidity;BME280_pressure;Samples;Min_cycle;Max_cycle;Signal;HPM_P1;HPM_P2
2021/04/23 00:01:19;;;;;;;23.37;8.17;;;;;;;;;;4990875;28;20237;-70
2021/04/23 00:03:52;;;;;;;28.70;8.83;;;;;;;;;;4980900;28;20234;-69
2021/04/23 00:06:17;;;;;;;26.30;8.77;;;;;;;;;;4996713;28;20192;-70
2021/04/23 00:08:45;;;;;;;23.20;8.43;;;;;;;;;;4989396;28;20241;-70
2021/04/23 00:11:12;;;;;;;16.00;7.17;;;;;;;;;;5002608;28;20287;-70
2021/04/23 00:13:38;;;;;;;20.60;6.73;;;;;;;;;;4977506;28;20202;-70
2021/04/23 00:16:05;;;;;;;18.30;7.30;;;;;;;;;;4985855;28;20700;-69
2021/04/23 00:18:31;;;;;;;18.67;7.33;;;;;;;;;;4977385;28;20199;-69
2021/04/23 00:20:57;;;;;;;16.33;6.90;;;;;;;;;;4985034;28;20347;-69
2021/04/23 00:23:22;;;;;;;18.67;6.77;;;;;;;;;;4999526;28;20209;-70
2021/04/23 00:25:48;;;;;;;17.07;6.60;;;;;;;;;;4982185;28;20195;-68
2021/04/23 00:28:15;;;;;;;18.30;7.03;;;;;;;;;;5001874;28;20290;-71
2021/04/23 00:30:48;;;;;;;25.83;6.80;;;;;;;;;;4987848;28;20674;-69
2021/04/23 00:33:13;;;;;;;19.63;6.40;;;;;;;;;;5005003;28;20269;-69
2021/04/23 00:35:42;;;;;;;21.60;6.93;;;;;;;;;;4987966;28;20235;-69
2021/04/23 00:38:11;;;;;;;16.20;6.60;;;;;;;;;;5014750;28;20187;-69
2021/04/23 00:40:47;;;;;;;20.50;6.57;;;;;;;;;;4988443;28;20276;-70
2021/04/23 00:43:12;;;;;;;16.63;6.50;;;;;;;;;;4990505;28;20199;-70
2021/04/23 00:45:38;;;;;;;21.33;7.80;;;;;;;;;;4987006;28;20227;-70
2021/04/23 00:48:05;;;;;;;25.63;6.77;;;;;;;;;;4996007;28;20191;-70
2021/04/23 00:50:40;;;;;;;18.90;6.30;;;;;;;;;;4987755;28;20175;-69
2021/04/23 00:53:07;;;;;;;24.27;6.97;;;;;;;;;;4993370;28;20221;-69
2021/04/23 00:55:34;;;;;;;19.43;6.50;;;;;;;;;;4978636;28;20212;-69
2021/04/23 00:57:59;;;;;;;31.70;7.10;;;;;;;;;;4994744;28;20564;-70
2021/04/23 01:00:25;;;;;;;19.67;6.67;;;;;;;;;;4988172;28;20666;-69
2021/04/23 01:02:51;;;;;;;24.07;7.90;;;;;;;;;;4988910;28;20211;-69
2021/04/23 01:05:18;;;;;;;22.17;6.50;;;;;;;;;;4989743;28;20567;-69
2021/04/23 01:07:47;;;;;;;17.60;6.57;;;;;;;;;;4993251;28;20195;-69
2021/04/23 01:10:13;;;;;;;19.27;7.93;;;;;;;;;;4994301;28;20206;-69
2021/04/23 01:12:39;;;;;;;18.77;7.17;;;;;;;;;;4991178;28;20191;-70
2021/04/23 01:15:05;;;;;;;21.00;6.90;;;;;;;;;;4990025;28;20190;-70
2021/04/23 01:17:31;;;;;;;22.50;7.67;;;;;;;;;;4994658;28;20591;-70
2021/04/23 01:19:56;;;;;;;18.43;6.20;;;;;;;;;;5006472;28;20290;-70
2021/04/23 01:22:22;;;;;;;18.70;6.93;;;;;;;;;;4993026;28;20191;-70
2021/04/23 01:24:47;;;;;;;18.37;7.33;;;;;;;;;;5010381;28;20707;-71
2021/04/23 01:27:12;;;;;;;18.97;6.53;;;;;;;;;;4985823;28;20242;-70
2021/04/23 01:29:38;;;;;;;22.80;6.80;;;;;;;;;;4995985;28;20195;-68
2021/04/23 01:32:04;;;;;;;20.90;7.07;;;;;;;;;;4992404;28;20207;-70
2021/04/23 01:34:33;;;;;;;21.87;7.17;;;;;;;;;;4993500;28;20602;-70
2021/04/23 01:37:00;;;;;;;18.13;7.30;;;;;;;;;;5003020;28;20539;-70
2021/04/23 01:39:28;;;;;;;19.70;7.20;;;;;;;;;;4988756;28;20195;-70
2021/04/23 01:41:55;;;;;;;17.97;6.27;;;;;;;;;;4992798;28;20194;-70
2021/04/23 01:44:21;;;;;;;17.80;6.90;;;;;;;;;;4988193;28;20284;-70
2021/04/23 01:46:47;;;;;;;18.30;6.97;;;;;;;;;;4994814;28;20190;-70
2021/04/23 01:49:15;;;;;;;17.13;7.30;;;;;;;;;;4985827;28;20203;-70
2021/04/23 01:51:53;;;;;;;18.70;7.27;;;;;;;;;;4994641;28;20179;-70
2021/04/23 01:54:20;;;;;;;20.17;7.00;;;;;;;;;;4981832;28;20202;-70
2021/04/23 01:56:47;;;;;;;16.77;6.47;;;;;;;;;;4993995;28;20199;-70
2021/04/23 01:59:14;;;;;;;23.60;7.63;;;;;;;;;;4985526;28;20249;-69
2021/04/23 02:01:40;;;;;;;18.80;7.83;;;;;;;;;;4994118;28;20575;-69
2021/04/23 02:04:09;;;;;;;21.87;7.83;;;;;;;;;;4985125;28;20219;-69
2021/04/23 02:06:35;;;;;;;20.23;7.60;;;;;;;;;;4996109;28;20639;-70
2021/04/23 02:09:01;;;;;;;20.57;7.77;;;;;;;;;;4997106;28;20843;-69
2021/04/23 02:11:27;;;;;;;17.30;6.80;;;;;;;;;;4994948;28;20390;-69
2021/04/23 02:13:55;;;;;;;19.10;7.03;;;;;;;;;;4996014;28;20277;-70
2021/04/23 02:16:21;;;;;;;18.63;5.70;;;;;;;;;;4987306;28;20252;-70
2021/04/23 02:18:47;;;;;;;19.80;6.20;;;;;;;;;;4996841;28;20186;-69
2021/04/23 02:21:13;;;;;;;14.73;5.93;;;;;;;;;;4989514;28;20195;-70
2021/04/23 02:23:41;;;;;;;15.20;6.20;;;;;;;;;;5000888;28;20187;-71
2021/04/23 02:26:07;;;;;;;19.47;5.63;;;;;;;;;;4987875;28;20667;-69
2021/04/23 02:28:33;;;;;;;18.17;6.27;;;;;;;;;;4997582;28;20215;-69
2021/04/23 02:31:09;;;;;;;17.83;5.33;;;;;;;;;;4985570;28;20207;-69
2021/04/23 02:33:35;;;;;;;13.63;5.27;;;;;;;;;;4991468;28;20298;-69
2021/04/23 02:36:01;;;;;;;14.10;5.30;;;;;;;;;;4990651;28;20254;-70
2021/04/23 02:38:27;;;;;;;20.87;6.20;;;;;;;;;;4987646;28;20202;-69
2021/04/23 02:40:56;;;;;;;17.27;5.43;;;;;;;;;;4985100;28;24218;-69
2021/04/23 02:43:25;;;;;;;18.13;5.73;;;;;;;;;;4999201;28;20215;-70
2021/04/23 02:45:52;;;;;;;15.50;5.57;;;;;;;;;;4988965;28;20219;-70
2021/04/23 02:48:20;;;;;;;15.83;5.23;;;;;;;;;;4999311;28;20191;-70
2021/04/23 02:50:49;;;;;;;15.33;5.33;;;;;;;;;;4995319;28;20182;-70
2021/04/23 02:53:16;;;;;;;19.07;6.73;;;;;;;;;;4989394;28;20256;-70
2021/04/23 02:55:42;;;;;;;20.60;5.70;;;;;;;;;;4990210;28;20224;-69
2021/04/23 02:58:12;;;;;;;22.10;6.20;;;;;;;;;;4984873;28;20298;-70
2021/04/23 03:00:40;;;;;;;15.97;5.00;;;;;;;;;;4997475;28;20241;-69
2021/04/23 03:03:08;;;;;;;13.40;5.23;;;;;;;;;;4990955;28;20725;-69
2021/04/23 03:05:35;;;;;;;19.43;5.60;;;;;;;;;;4991588;28;20187;-70
2021/04/23 03:08:00;;;;;;;17.57;4.70;;;;;;;;;;4998987;28;20305;-70
2021/04/23 03:10:30;;;;;;;15.43;4.60;;;;;;;;;;4989291;28;20183;-70
2021/04/23 03:12:57;;;;;;;18.37;5.30;;;;;;;;;;4987569;28;20277;-70
2021/04/23 03:15:25;;;;;;;14.80;5.17;;;;;;;;;;4992233;28;20263;-70
2021/04/23 03:17:51;;;;;;;21.27;5.07;;;;;;;;;;4986823;28;20651;-70
2021/04/23 03:20:20;;;;;;;13.83;4.50;;;;;;;;;;4995269;28;20237;-70
2021/04/23 03:22:45;;;;;;;23.67;5.40;;;;;;;;;;4994471;28;20665;-70
2021/04/23 03:25:12;;;;;;;13.27;5.00;;;;;;;;;;4989045;28;20187;-70
2021/04/23 03:27:39;;;;;;;15.03;4.60;;;;;;;;;;4998785;28;20257;-70
2021/04/23 03:30:08;;;;;;;19.40;4.80;;;;;;;;;;4982375;28;20673;-69
2021/04/23 03:32:33;;;;;;;17.40;5.07;;;;;;;;;;4992835;28;20201;-71
2021/04/23 03:34:59;;;;;;;17.00;4.77;;;;;;;;;;4983732;28;20191;-70
2021/04/23 03:37:25;;;;;;;18.47;5.47;;;;;;;;;;4991095;28;20621;-68
2021/04/23 03:39:50;;;;;;;14.30;5.67;;;;;;;;;;4984879;28;20286;-69
2021/04/23 03:42:15;;;;;;;19.40;6.40;;;;;;;;;;4987622;28;20302;-69
2021/04/23 03:44:41;;;;;;;14.63;5.07;;;;;;;;;;4988445;28;20321;-70
2021/04/23 03:47:06;;;;;;;15.37;4.93;;;;;;;;;;4999623;28;20187;-70
2021/04/23 03:49:32;;;;;;;19.20;6.13;;;;;;;;;;4982785;28;20206;-70
2021/04/23 03:51:58;;;;;;;16.03;5.20;;;;;;;;;;4994081;28;20187;-70
2021/04/23 03:54:24;;;;;;;17.90;5.17;;;;;;;;;;4984767;28;20191;-70
2021/04/23 03:56:50;;;;;;;18.10;5.57;;;;;;;;;;4995170;28;20265;-69
2021/04/23 03:59:15;;;;;;;13.70;5.17;;;;;;;;;;4995015;28;20222;-70
2021/04/23 04:01:40;;;;;;;18.47;5.03;;;;;;;;;;4988413;28;20202;-70
2021/04/23 04:04:06;;;;;;;19.60;5.60;;;;;;;;;;4993745;28;20302;-70
2021/04/23 04:06:32;;;;;;;25.70;6.40;;;;;;;;;;4991498;28;20555;-70
2021/04/23 04:08:57;;;;;;;17.87;5.10;;;;;;;;;;4998176;28;20206;-70
2021/04/23 04:11:22;;;;;;;17.70;5.57;;;;;;;;;;4989912;28;20206;-69
2021/04/23 04:13:48;;;;;;;16.07;4.43;;;;;;;;;;4999069;28;20237;-70
2021/04/23 04:16:13;;;;;;;18.23;4.87;;;;;;;;;;4995346;28;20211;-70
2021/04/23 04:18:39;;;;;;;18.70;4.90;;;;;;;;;;4996994;28;20255;-70
2021/04/23 04:21:04;;;;;;;19.10;5.10;;;;;;;;;;4991839;28;20219;-70
2021/04/23 04:23:30;;;;;;;17.57;4.93;;;;;;;;;;4994825;28;20218;-69
2021/04/23 04:25:59;;;;;;;18.60;4.87;;;;;;;;;;4998711;28;20240;-69
2021/04/23 04:28:26;;;;;;;17.87;5.33;;;;;;;;;;4992996;28;20224;-70
2021/04/23 04:30:52;;;;;;;16.27;4.83;;;;;;;;;;4998283;28;20257;-70
2021/04/23 04:33:17;;;;;;;16.47;4.13;;;;;;;;;;4988263;28;20270;-70
2021/04/23 04:35:44;;;;;;;10.97;5.10;;;;;;;;;;4996956;28;20192;-70
2021/04/23 04:38:10;;;;;;;19.80;5.40;;;;;;;;;;4986294;28;20273;-70
2021/04/23 04:40:37;;;;;;;12.33;4.57;;;;;;;;;;5002677;28;20179;-70
2021/04/23 04:43:05;;;;;;;14.57;4.90;;;;;;;;;;5003354;28;20993;-69
2021/04/23 04:45:31;;;;;;;19.63;4.70;;;;;;;;;;4996171;28;20559;-70
2021/04/23 04:47:57;;;;;;;15.33;4.70;;;;;;;;;;4991194;28;20198;-70
2021/04/23 04:50:38;;;;;;;12.57;4.20;;;;;;;;;;4995425;28;20233;-70
2021/04/23 04:53:06;;;;;;;20.17;5.27;;;;;;;;;;4985887;28;20191;-70
2021/04/23 04:55:35;;;;;;;16.00;4.37;;;;;;;;;;5000355;28;20186;-70
2021/04/23 04:58:02;;;;;;;20.97;5.00;;;;;;;;;;4990187;28;20201;-71
2021/04/23 05:00:28;;;;;;;11.00;4.37;;;;;;;;;;4997600;28;20198;-70
2021/04/23 05:02:54;;;;;;;12.67;4.80;;;;;;;;;;4987785;28;20219;-70
2021/04/23 05:05:20;;;;;;;14.53;5.00;;;;;;;;;;4996541;28;20508;-70
2021/04/23 05:07:46;;;;;;;19.73;4.27;;;;;;;;;;4995222;28;20202;-70
2021/04/23 05:10:12;;;;;;;13.97;4.63;;;;;;;;;;4992495;28;20257;-69
2021/04/23 05:12:38;;;;;;;12.83;4.73;;;;;;;;;;4995599;28;20265;-70
2021/04/23 05:15:05;;;;;;;20.07;4.30;;;;;;;;;;4988477;28;20205;-70
2021/04/23 05:17:31;;;;;;;14.20;4.20;;;;;;;;;;4995276;28;20353;-70
2021/04/23 05:19:57;;;;;;;16.33;3.83;;;;;;;;;;4989357;28;20285;-70
2021/04/23 05:22:22;;;;;;;12.50;4.17;;;;;;;;;;4995315;28;20190;-70
2021/04/23 05:24:48;;;;;;;14.10;4.30;;;;;;;;;;4986327;28;20199;-70
2021/04/23 05:27:13;;;;;;;12.50;4.13;;;;;;;;;;4997146;28;20663;-70
2021/04/23 05:29:38;;;;;;;17.33;4.17;;;;;;;;;;4991772;28;20317;-70
2021/04/23 05:32:05;;;;;;;11.37;4.03;;;;;;;;;;4997343;28;20195;-69
2021/04/23 05:34:31;;;;;;;12.40;3.67;;;;;;;;;;4992227;28;20191;-70
2021/04/23 05:36:56;;;;;;;8.87;3.97;;;;;;;;;;4991268;28;20210;-70
2021/04/23 05:39:22;;;;;;;12.13;3.70;;;;;;;;;;4996838;28;20195;-69
2021/04/23 05:41:48;;;;;;;17.47;4.57;;;;;;;;;;4988819;28;20210;-70
2021/04/23 05:44:13;;;;;;;17.50;4.40;;;;;;;;;;4995284;28;20590;-70
2021/04/23 05:46:39;;;;;;;14.13;3.47;;;;;;;;;;4988150;28;20222;-70
2021/04/23 05:49:05;;;;;;;10.00;3.70;;;;;;;;;;4993746;28;20680;-70
2021/04/23 05:51:31;;;;;;;10.73;4.17;;;;;;;;;;5000192;28;20210;-70
2021/04/23 05:53:57;;;;;;;17.40;4.03;;;;;;;;;;4999655;28;20187;-70
2021/04/23 05:56:23;;;;;;;13.97;4.43;;;;;;;;;;4986622;28;20203;-69
2021/04/23 05:58:48;;;;;;;15.17;4.03;;;;;;;;;;4997403;28;20228;-69
2021/04/23 06:01:15;;;;;;;14.13;3.80;;;;;;;;;;4989665;28;22070;-70
2021/04/23 06:03:40;;;;;;;12.10;3.83;;;;;;;;;;4994320;28;20203;-70
2021/04/23 06:06:06;;;;;;;10.23;2.90;;;;;;;;;;4995973;28;20665;-70
2021/04/23 06:08:31;;;;;;;14.83;4.20;;;;;;;;;;4985474;28;20202;-70
2021/04/23 06:10:57;;;;;;;13.53;3.33;;;;;;;;;;4991692;28;20312;-70
2021/04/23 06:13:22;;;;;;;14.30;3.10;;;;;;;;;;4985179;28;20427;-69
2021/04/23 06:15:48;;;;;;;15.90;3.67;;;;;;;;;;4999436;28;20198;-69
2021/04/23 06:18:13;;;;;;;12.63;3.03;;;;;;;;;;4980644;28;20207;-69
2021/04/23 06:20:41;;;;;;;16.67;3.20;;;;;;;;;;5001247;28;20179;-69
2021/04/23 06:23:07;;;;;;;13.43;3.10;;;;;;;;;;4983605;28;20422;-69
2021/04/23 06:25:33;;;;;;;9.73;2.97;;;;;;;;;;4999124;28;20189;-69
2021/04/23 06:27:58;;;;;;;10.00;2.60;;;;;;;;;;4984240;28;20253;-70
2021/04/23 06:30:30;;;;;;;16.07;3.00;;;;;;;;;;4994371;28;20569;-70
2021/04/23 06:32:57;;;;;;;12.67;4.37;;;;;;;;;;4986807;28;20195;-70
2021/04/23 06:35:29;;;;;;;13.33;3.47;;;;;;;;;;4994650;28;20214;-70
2021/04/23 06:37:54;;;;;;;9.20;2.53;;;;;;;;;;4988234;28;20261;-69
2021/04/23 06:40:20;;;;;;;11.83;3.13;;;;;;;;;;4990283;28;20644;-69
2021/04/23 06:42:45;;;;;;;13.80;3.10;;;;;;;;;;4991094;28;20613;-70
2021/04/23 06:45:17;;;;;;;14.43;3.43;;;;;;;;;;4988178;28;20247;-70
2021/04/23 06:47:43;;;;;;;11.93;2.47;;;;;;;;;;4992968;28;20198;-69
2021/04/23 06:50:12;;;;;;;16.27;3.50;;;;;;;;;;4982570;28;20270;-70
2021/04/23 06:52:38;;;;;;;8.90;2.57;;;;;;;;;;4992178;28;20187;-69
2021/04/23 06:55:05;;;;;;;9.13;2.63;;;;;;;;;;4995676;28;20187;-69
2021/04/23 06:57:31;;;;;;;8.40;2.17;;;;;;;;;;4992789;28;20609;-70
2021/04/23 06:59:56;;;;;;;9.83;2.63;;;;;;;;;;4986863;28;20221;-69
2021/04/23 07:02:21;;;;;;;11.20;2.80;;;;;;;;;;4994408;28;20294;-69
2021/04/23 07:04:47;;;;;;;10.17;2.50;;;;;;;;;;4992190;28;20260;-70
2021/04/23 07:07:12;;;;;;;11.47;2.30;;;;;;;;;;4992877;28;20223;-69
2021/04/23 07:09:37;;;;;;;15.00;2.65;;;;;;;;;;4984465;28;20215;-70
2021/04/23 07:12:03;;;;;;;13.85;2.90;;;;;;;;;;4989649;28;20195;-69
2021/04/23 07:14:29;;;;;;;13.00;3.07;;;;;;;;;;4983687;28;20194;-70
2021/04/23 07:16:54;;;;;;;6.30;2.47;;;;;;;;;;4995677;28;20696;-70
2021/04/23 07:19:20;;;;;;;7.57;2.50;;;;;;;;;;4994928;28;20221;-70
2021/04/23 07:21:45;;;;;;;9.90;2.20;;;;;;;;;;4989011;28;20269;-70
2021/04/23 07:24:11;;;;;;;11.52;2.38;;;;;;;;;;4995968;28;20191;-70
2021/04/23 07:26:36;;;;;;;11.18;2.25;;;;;;;;;;4984563;28;20253;-70
2021/04/23 07:29:02;;;;;;;5.78;1.52;;;;;;;;;;4994925;28;20213;-70
2021/04/23 07:31:27;;;;;;;10.32;2.42;;;;;;;;;;4988039;28;20191;-70
2021/04/23 07:33:53;;;;;;;11.35;2.38;;;;;;;;;;4991556;28;20577;-71
2021/04/23 07:36:18;;;;;;;15.25;3.00;;;;;;;;;;4987692;28;20670;-68
2021/04/23 07:38:43;;;;;;;10.50;2.00;;;;;;;;;;5008486;28;20658;-68
2021/04/23 07:41:10;;;;;;;9.75;1.98;;;;;;;;;;4979725;28;20211;-69
2021/04/23 07:43:35;;;;;;;8.18;2.47;;;;;;;;;;4993256;28;20616;-69
2021/04/23 07:46:02;;;;;;;7.13;2.00;;;;;;;;;;4990016;28;20234;-69
2021/04/23 07:48:28;;;;;;;7.90;2.25;;;;;;;;;;4993255;28;20195;-69
2021/04/23 07:50:53;;;;;;;13.10;2.58;;;;;;;;;;4996194;28;20232;-69
2021/04/23 07:53:19;;;;;;;8.63;2.17;;;;;;;;;;4987413;28;20298;-70
2021/04/23 07:55:44;;;;;;;6.55;2.10;;;;;;;;;;4999200;28;20233;-69
2021/04/23 07:58:10;;;;;;;9.25;2.08;;;;;;;;;;4985501;28;20566;-69
2021/04/23 08:00:36;;;;;;;10.57;2.42;;;;;;;;;;4991644;28;20197;-70
2021/04/23 08:03:01;;;;;;;9.63;2.35;;;;;;;;;;4990248;28;20218;-70
2021/04/23 08:05:27;;;;;;;8.77;2.08;;;;;;;;;;4996278;28;20195;-70
2021/04/23 08:07:52;;;;;;;10.25;2.30;;;;;;;;;;4986506;28;20301;-70
2021/04/23 08:10:19;;;;;;;11.85;3.10;;;;;;;;;;4991799;28;20186;-69
2021/04/23 08:12:46;;;;;;;10.88;2.58;;;;;;;;;;4986931;28;20284;-69
2021/04/23 08:15:13;;;;;;;10.57;2.50;;;;;;;;;;4996794;28;20623;-69
2021/04/23 08:17:39;;;;;;;12.05;2.47;;;;;;;;;;4990545;28;20207;-69
2021/04/23 08:20:06;;;;;;;10.88;3.05;;;;;;;;;;5000098;28;20199;-70
2021/04/23 08:22:31;;;;;;;9.82;2.05;;;;;;;;;;4994117;28;20280;-70
2021/04/23 08:24:57;;;;;;;9.23;2.00;;;;;;;;;;4990370;28;20256;-70
2021/04/23 08:27:22;;;;;;;13.73;2.90;;;;;;;;;;4992695;28;20191;-70
2021/04/23 08:29:48;;;;;;;9.87;2.30;;;;;;;;;;4988199;28;20205;-70
2021/04/23 08:32:13;;;;;;;10.38;2.65;;;;;;;;;;4990161;28;20643;-70
2021/04/23 08:34:39;;;;;;;8.95;2.50;;;;;;;;;;4994805;28;20277;-70
2021/04/23 08:37:04;;;;;;;11.07;3.17;;;;;;;;;;4989945;28;20297;-70
2021/04/23 08:39:29;;;;;;;4.30;2.10;;;;;;;;;;4990848;28;20211;-68
2021/04/23 08:41:55;;;;;;;5.18;1.88;;;;;;;;;;4992255;28;20635;-69
2021/04/23 08:44:20;;;;;;;9.70;2.63;;;;;;;;;;4991277;28;24782;-69
2021/04/23 08:46:46;;;;;;;8.27;2.92;;;;;;;;;;4995865;28;20218;-69
2021/04/23 08:49:16;;;;;;;8.55;2.35;;;;;;;;;;4994688;28;20290;-69
2021/04/23 08:51:42;;;;;;;8.43;2.47;;;;;;;;;;4989069;28;20226;-69
2021/04/23 08:54:07;;;;;;;6.55;2.10;;;;;;;;;;4999137;28;20605;-69
2021/04/23 08:56:33;;;;;;;10.98;2.78;;;;;;;;;;4992348;28;20211;-69
2021/04/23 08:58:58;;;;;;;11.15;2.90;;;;;;;;;;5000603;28;20226;-69
2021/04/23 09:01:26;;;;;;;7.95;2.95;;;;;;;;;;4985992;28;20219;-70
2021/04/23 09:03:51;;;;;;;8.50;2.42;;;;;;;;;;5003333;28;20206;-69
2021/04/23 09:06:21;;;;;;;7.70;2.30;;;;;;;;;;4990826;28;20545;-70
2021/04/23 09:08:59;;;;;;;6.78;2.95;;;;;;;;;;4992822;28;20752;-69
2021/04/23 09:11:25;;;;;;;8.43;2.55;;;;;;;;;;4989530;28;20665;-69
2021/04/23 09:13:52;;;;;;;8.15;2.90;;;;;;;;;;5002826;28;20186;-69
2021/04/23 09:16:20;;;;;;;10.98;2.47;;;;;;;;;;4989955;28;20210;-69
2021/04/23 09:18:45;;;;;;;8.40;2.35;;;;;;;;;;4999739;28;20223;-70
2021/04/23 09:21:14;;;;;;;8.95;2.63;;;;;;;;;;4986168;28;20187;-69
2021/04/23 09:23:49;;;;;;;6.72;2.60;;;;;;;;;;5001673;28;20175;-70
2021/04/23 09:26:31;;;;;;;7.55;2.80;;;;;;;;;;4986745;28;20238;-70
2021/04/23 09:28:56;;;;;;;6.95;2.70;;;;;;;;;;5006595;28;20656;-69
2021/04/23 09:31:30;;;;;;;9.30;2.15;;;;;;;;;;4990556;28;20183;-69
2021/04/23 09:33:59;;;;;;;10.00;2.72;;;;;;;;;;4993269;28;20679;-70
2021/04/23 09:36:30;;;;;;;7.82;2.40;;;;;;;;;;4995431;28;20261;-70
2021/04/23 09:39:21;;;;;;;8.10;2.75;;;;;;;;;;4997188;28;20202;-70
2021/04/23 09:42:00;;;;;;;10.57;2.80;;;;;;;;;;4998443;28;20187;-69
2021/04/23 09:44:27;;;;;;;10.45;2.47;;;;;;;;;;4998468;28;20226;-69
2021/04/23 09:47:01;;;;;;;7.70;2.42;;;;;;;;;;4999719;28;20191;-70
2021/04/23 09:49:27;;;;;;;10.27;2.60;;;;;;;;;;4988109;28;20199;-70
2021/04/23 09:51:53;;;;;;;8.50;3.15;;;;;;;;;;4997234;28;20298;-70
2021/04/23 09:54:21;;;;;;;10.02;2.90;;;;;;;;;;4991597;28;20711;-69
2021/04/23 09:56:47;;;;;;;9.73;3.13;;;;;;;;;;4996523;28;20202;-70
2021/04/23 09:59:24;;;;;;;8.15;2.97;;;;;;;;;;4991263;28;20199;-70
2021/04/23 10:01:57;;;;;;;6.47;2.50;;;;;;;;;;4998035;28;20198;-70
2021/04/23 10:04:31;;;;;;;9.07;3.17;;;;;;;;;;4992809;28;20194;-70
2021/04/23 10:07:20;;;;;;;10.13;2.70;;;;;;;;;;4996106;28;20178;-70
2021/04/23 10:09:48;;;;;;;9.18;3.08;;;;;;;;;;4988634;28;20183;-70
2021/04/23 10:12:49;;;;;;;6.28;2.50;;;;;;;;;;4992667;28;20270;-70
2021/04/23 10:15:20;;;;;;;9.05;3.22;;;;;;;;;;4985712;28;20202;-70
2021/04/23 10:17:51;;;;;;;7.07;3.70;;;;;;;;;;4997963;28;20241;-71
2021/04/23 10:20:20;;;;;;;6.25;2.85;;;;;;;;;;4989550;28;20825;-70
2021/04/23 10:22:46;;;;;;;8.95;3.60;;;;;;;;;;4992943;28;20687;-70
2021/04/23 10:25:12;;;;;;;8.07;3.47;;;;;;;;;;4985488;28;20305;-70
2021/04/23 10:27:40;;;;;;;9.65;3.20;;;;;;;;;;4996802;28;20167;-70
2021/04/23 10:30:10;;;;;;;8.88;3.08;;;;;;;;;;4980784;28;20199;-69
2021/04/23 10:32:35;;;;;;;7.00;3.50;;;;;;;;;;5001451;28;20248;-70
2021/04/23 10:35:01;;;;;;;10.50;3.60;;;;;;;;;;4985338;28;20188;-70
2021/04/23 10:37:26;;;;;;;6.78;3.05;;;;;;;;;;5010734;28;20275;-70
2021/04/23 10:39:53;;;;;;;7.32;2.85;;;;;;;;;;4988535;28;20191;-70
2021/04/23 10:42:42;;;;;;;6.93;2.90;;;;;;;;;;4997471;28;20185;-70
2021/04/23 10:45:25;;;;;;;9.55;3.15;;;;;;;;;;4988146;28;20363;-70
2021/04/23 10:47:52;;;;;;;8.68;2.90;;;;;;;;;;4999940;28;20269;-70
2021/04/23 10:50:20;;;;;;;9.70;4.50;;;;;;;;;;4991052;28;20191;-70
2021/04/23 10:53:12;;;;;;;15.18;7.43;;;;;;;;;;4993760;28;20175;-70
2021/04/23 10:55:53;;;;;;;10.25;3.13;;;;;;;;;;4984703;28;20241;-70
2021/04/23 10:58:37;;;;;;;12.23;4.80;;;;;;;;;;5001650;28;20269;-70
2021/04/23 11:01:21;;;;;;;9.80;3.67;;;;;;;;;;4986822;28;20187;-70
2021/04/23 11:04:05;;;;;;;14.85;4.22;;;;;;;;;;4996223;28;20601;-70
2021/04/23 11:06:36;;;;;;;8.90;3.60;;;;;;;;;;4984206;28;20647;-69
2021/04/23 11:09:02;;;;;;;7.80;3.40;;;;;;;;;;4995802;28;20196;-71
2021/04/23 11:11:31;;;;;;;8.60;3.03;;;;;;;;;;4983924;28;20245;-70
2021/04/23 11:14:23;;;;;;;12.38;3.25;;;;;;;;;;4994907;28;20183;-69
2021/04/23 11:17:09;;;;;;;5.88;2.90;;;;;;;;;;4987281;28;20203;-69
2021/04/23 11:19:36;;;;;;;8.07;3.40;;;;;;;;;;4994310;28;20199;-70
2021/04/23 11:22:07;;;;;;;9.30;3.28;;;;;;;;;;4986760;28;20562;-70
2021/04/23 11:24:33;;;;;;;7.75;3.28;;;;;;;;;;4996365;28;20191;-70
2021/04/23 11:27:09;;;;;;;6.97;3.13;;;;;;;;;;4987937;28;20588;-69
2021/04/23 11:29:38;;;;;;;9.60;2.80;;;;;;;;;;4988058;28;20193;-70
2021/04/23 11:32:12;;;;;;;8.63;3.65;;;;;;;;;;4991145;28;20273;-70
2021/04/23 11:34:43;;;;;;;7.70;3.42;;;;;;;;;;4985133;28;20191;-71
2021/04/23 11:37:11;;;;;;;11.38;3.45;;;;;;;;;;4990530;28;20190;-70
2021/04/23 11:39:42;;;;;;;8.55;3.08;;;;;;;;;;4987998;28;20668;-70
2021/04/23 11:42:14;;;;;;;5.40;3.33;;;;;;;;;;4990866;28;20231;-70
2021/04/23 11:44:46;;;;;;;16.80;8.02;;;;;;;;;;4981482;28;20234;-71
2021/04/23 11:47:16;;;;;;;69.90;27.95;;;;;;;;;;4993974;28;20183;-70
2021/04/23 11:49:42;;;;;;;9.50;3.88;;;;;;;;;;4982839;28;20244;-70
2021/04/23 11:52:08;;;;;;;8.13;3.92;;;;;;;;;;4993799;28;20347;-70
2021/04/23 11:54:37;;;;;;;8.23;3.22;;;;;;;;;;4988055;28;20195;-71
2021/04/23 11:57:05;;;;;;;7.55;3.38;;;;;;;;;;4992306;28;20191;-70
2021/04/23 11:59:31;;;;;;;8.77;3.85;;;;;;;;;;4981416;28;20518;-70
2021/04/23 12:01:57;;;;;;;9.15;3.75;;;;;;;;;;4994996;28;20202;-69
2021/04/23 12:04:46;;;;;;;7.35;4.25;;;;;;;;;;5003171;28;20203;-70
2021/04/23 12:07:12;;;;;;;9.05;3.80;;;;;;;;;;4991461;28;20234;-70
2021/04/23 12:09:38;;;;;;;6.57;3.08;;;;;;;;;;4984695;28;20197;-70
2021/04/23 12:12:09;;;;;;;5.75;2.90;;;;;;;;;;4990434;28;20710;-70
2021/04/23 12:14:45;;;;;;;8.70;3.08;;;;;;;;;;4990558;28;20656;-70
2021/04/23 12:17:12;;;;;;;8.50;3.08;;;;;;;;;;4990460;28;21405;-70
2021/04/23 12:19:37;;;;;;;7.90;3.28;;;;;;;;;;4996805;28;20218;-70
2021/04/23 12:22:03;;;;;;;7.47;3.05;;;;;;;;;;4992596;28;20191;-70
2021/04/23 12:24:28;;;;;;;7.97;3.63;;;;;;;;;;4997101;28;20190;-70
2021/04/23 12:26:54;;;;;;;10.57;4.13;;;;;;;;;;4987369;28;20241;-70
2021/04/23 12:29:24;;;;;;;7.55;3.38;;;;;;;;;;4992361;28;20188;-70
2021/04/23 12:31:49;;;;;;;8.48;3.13;;;;;;;;;;4988096;28;20188;-70
2021/04/23 12:34:16;;;;;;;11.10;3.95;;;;;;;;;;4989311;28;20195;-70
2021/04/23 12:36:43;;;;;;;9.48;4.60;;;;;;;;;;4986472;28;20211;-70
2021/04/23 12:39:22;;;;;;;6.68;3.70;;;;;;;;;;4987000;28;20698;-70
2021/04/23 12:41:48;;;;;;;6.30;3.17;;;;;;;;;;4982283;28;20748;-70
2021/04/23 12:44:19;;;;;;;8.88;3.40;;;;;;;;;;4993684;28;20273;-70
2021/04/23 12:46:47;;;;;;;6.55;3.40;;;;;;;;;;4985150;28;20196;-70
2021/04/23 12:49:28;;;;;;;6.15;3.38;;;;;;;;;;4995660;28;20187;-70
2021/04/23 12:51:56;;;;;;;7.10;3.80;;;;;;;;;;4992385;28;20581;-69
2021/04/23 12:54:32;;;;;;;9.85;4.50;;;;;;;;;;4991047;28;20187;-70
2021/04/23 12:57:01;;;;;;;8.55;4.03;;;;;;;;;;4983889;28;20203;-69
2021/04/23 12:59:40;;;;;;;10.30;4.22;;;;;;;;;;4995834;28;20195;-69
2021/04/23 13:02:08;;;;;;;10.20;3.90;;;;;;;;;;4984765;28;20316;-70
2021/04/23 13:04:33;;;;;;;11.80;3.50;;;;;;;;;;4992181;28;20190;-69
2021/04/23 13:07:10;;;;;;;10.63;4.18;;;;;;;;;;4996675;28;20175;-70
2021/04/23 13:09:35;;;;;;;10.13;3.75;;;;;;;;;;4986298;28;20205;-70
2021/04/23 13:12:17;;;;;;;10.52;3.60;;;;;;;;;;4994224;28;20180;-70
2021/04/23 13:14:43;;;;;;;9.82;3.95;;;;;;;;;;4985598;28;20206;-70
2021/04/23 13:17:10;;;;;;;8.57;3.65;;;;;;;;;;4996678;28;20226;-70
2021/04/23 13:19:38;;;;;;;7.70;4.07;;;;;;;;;;4984979;28;20265;-70
2021/04/23 13:22:30;;;;;;;5.85;3.60;;;;;;;;;;4997908;28;20171;-70
2021/04/23 13:25:10;;;;;;;9.98;4.32;;;;;;;;;;4986288;28;20205;-70
2021/04/23 13:27:37;;;;;;;9.95;4.22;;;;;;;;;;4996468;28;20673;-70
2021/04/23 13:30:03;;;;;;;6.15;3.75;;;;;;;;;;4989887;28;20190;-70
2021/04/23 13:32:52;;;;;;;10.88;4.10;;;;;;;;;;4998240;28;20851;-69
2021/04/23 13:35:29;;;;;;;9.63;4.68;;;;;;;;;;4980372;28;20187;-70
2021/04/23 13:37:55;;;;;;;9.63;4.35;;;;;;;;;;4995916;28;20336;-70
2021/04/23 13:40:27;;;;;;;7.78;4.30;;;;;;;;;;4983038;28;20195;-70
2021/04/23 13:43:05;;;;;;;6.78;4.10;;;;;;;;;;4994975;28;20202;-70
2021/04/23 13:45:31;;;;;;;9.13;4.22;;;;;;;;;;4987841;28;20773;-70
2021/04/23 13:47:56;;;;;;;8.75;4.07;;;;;;;;;;4988153;28;20283;-70
2021/04/23 13:50:21;;;;;;;9.88;4.40;;;;;;;;;;4983515;28;20215;-70
2021/04/23 13:52:48;;;;;;;8.70;4.00;;;;;;;;;;4990706;28;20277;-70
2021/04/23 13:55:16;;;;;;;9.98;4.70;;;;;;;;;;4983946;28;20193;-70
2021/04/23 13:58:01;;;;;;;10.25;4.43;;;;;;;;;;4993480;28;20248;-70
2021/04/23 14:00:27;;;;;;;8.23;4.03;;;;;;;;;;5001694;28;20218;-70
2021/04/23 14:03:00;;;;;;;8.38;4.38;;;;;;;;;;4994286;28;20211;-70
2021/04/23 14:05:27;;;;;;;9.80;4.32;;;;;;;;;;4983178;28;20266;-70
2021/04/23 14:07:52;;;;;;;7.05;4.10;;;;;;;;;;4996105;28;20183;-70
2021/04/23 14:10:18;;;;;;;9.90;4.53;;;;;;;;;;4993474;28;20656;-70
2021/04/23 14:12:44;;;;;;;12.43;4.50;;;;;;;;;;4988686;28;20202;-70
2021/04/23 14:15:09;;;;;;;6.75;4.22;;;;;;;;;;4993484;28;20187;-70
2021/04/23 14:17:35;;;;;;;6.97;4.38;;;;;;;;;;4989507;28;20230;-71
2021/04/23 14:20:01;;;;;;;11.52;4.53;;;;;;;;;;4994517;28;20190;-70
2021/04/23 14:22:26;;;;;;;8.07;4.35;;;;;;;;;;4984011;28;20227;-70
2021/04/23 14:24:52;;;;;;;7.70;4.40;;;;;;;;;;4993295;28;20186;-70
2021/04/23 14:27:18;;;;;;;8.40;4.97;;;;;;;;;;4990111;28;20178;-70
2021/04/23 14:29:44;;;;;;;10.65;4.85;;;;;;;;;;4992183;28;20434;-70
2021/04/23 14:32:10;;;;;;;8.15;4.95;;;;;;;;;;4986967;28;20183;-70
2021/04/23 14:34:35;;;;;;;11.93;4.68;;;;;;;;;;5005619;28;20195;-70
2021/04/23 14:37:01;;;;;;;9.05;4.35;;;;;;;;;;4987643;28;20213;-70
2021/04/23 14:39:27;;;;;;;9.98;4.82;;;;;;;;;;4991646;28;20199;-71
2021/04/23 14:41:52;;;;;;;8.85;5.00;;;;;;;;;;4992506;28;20279;-71